sensor_id;sensor_type;location;lat;lon;timestamp;temperature;humidity
11132;DHT22;5620;53.570;9.718;2022-07-05T00:01:03;15.30;99.90
11132;DHT22;5620;53.570;9.718;2022-07-05T00:03:29;15.20;99.90
11132;DHT22;5620;53.570;9.718;2022-07-05T00:05:56;15.20;99.90
11132;DHT22;5620;53.570;9.718;2022-07-05T00:08:22;15.10;99.90
11132;DHT22;5620;53.570;9.718;2022-07-05T00:10:47;15.10;99.90
11132;DHT22;5620;53.570;9.718;2022-07-05T00:13:13;15.00;1.00
11132;DHT22;5620;53.570;9.718;2022-07-05T00:15:39;14.90;1.00
11132;DHT22;5620;53.570;9.718;2022-07-05T00:18:04;14.90;1.00
11132;DHT22;5620;53.570;9.718;2022-07-05T00:20:30;14.80;1.00
11132;DHT22;5620;53.570;9.718;2022-07-05T00:22:55;14.80;1.00
11132;DHT22;5620;53.570;9.718;2022-07-05T00:25:21;14.70;1.00
11132;DHT22;5620;53.570;9.718;2022-07-05T00:27:46;14.70;1.00
11132;DHT22;5620;53.570;9.718;2022-07-05T00:30:13;14.60;1.00
11132;DHT22;5620;53.570;9.718;2022-07-05T00:32:40;14.60;5.70
11132;DHT22;5620;53.570;9.718;2022-07-05T00:35:07;14.60;47.50
11132;DHT22;5620;53.570;9.718;2022-07-05T00:37:34;14.50;68.80
11132;DHT22;5620;53.570;9.718;2022-07-05T00:39:59;14.50;99.90
11132;DHT22;5620;53.570;9.718;2022-07-05T00:42:25;14.50;99.90
11132;DHT22;5620;53.570;9.718;2022-07-05T00:44:51;14.40;99.90
11132;DHT22;5620;53.570;9.718;2022-07-05T00:47:17;14.40;99.90
11132;DHT22;5620;53.570;9.718;2022-07-05T00:49:43;14.40;99.90
11132;DHT22;5620;53.570;9.718;2022-07-05T00:52:10;14.40;99.90
11132;DHT22;5620;53.570;9.718;2022-07-05T00:54:37;14.40;99.90
11132;DHT22;5620;53.570;9.718;2022-07-05T00:57:04;14.40;99.90
11132;DHT22;5620;53.570;9.718;2022-07-05T00:59:30;14.40;99.90
11132;DHT22;5620;53.570;9.718;2022-07-05T01:01:57;14.40;1.00
11132;DHT22;5620;53.570;9.718;2022-07-05T01:04:23;14.40;1.00
11132;DHT22;5620;53.570;9.718;2022-07-05T01:06:50;14.40;1.00
11132;DHT22;5620;53.570;9.718;2022-07-05T01:09:17;14.40;1.00
11132;DHT22;5620;53.570;9.718;2022-07-05T01:11:44;14.40;1.00
11132;DHT22;5620;53.570;9.718;2022-07-05T01:14:13;14.40;1.00
11132;DHT22;5620;53.570;9.718;2022-07-05T01:16:41;14.40;1.00
11132;DHT22;5620;53.570;9.718;2022-07-05T01:19:07;14.40;1.00
11132;DHT22;5620;53.570;9.718;2022-07-05T01:21:38;14.30;1.00
11132;DHT22;5620;53.570;9.718;2022-07-05T01:24:04;14.30;9.20
11132;DHT22;5620;53.570;9.718;2022-07-05T01:26:31;14.30;24.60
11132;DHT22;5620;53.570;9.718;2022-07-05T01:28:56;14.30;40.00
11132;DHT22;5620;53.570;9.718;2022-07-05T01:31:22;14.30;79.40
11132;DHT22;5620;53.570;9.718;2022-07-05T01:33:47;14.30;99.90
11132;DHT22;5620;53.570;9.718;2022-07-05T01:36:13;14.20;99.90
11132;DHT22;5620;53.570;9.718;2022-07-05T01:38:39;14.20;99.90
11132;DHT22;5620;53.570;9.718;2022-07-05T01:41:05;14.20;99.90
11132;DHT22;5620;53.570;9.718;2022-07-05T01:43:31;14.20;99.90
11132;DHT22;5620;53.570;9.718;2022-07-05T01:45:58;14.20;99.90
11132;DHT22;5620;53.570;9.718;2022-07-05T01:48:26;14.10;99.90
11132;DHT22;5620;53.570;9.718;2022-07-05T01:50:57;14.10;99.90
11132;DHT22;5620;53.570;9.718;2022-07-05T01:53:28;14.10;99.90
11132;DHT22;5620;53.570;9.718;2022-07-05T01:55:54;14.00;1.00
11132;DHT22;5620;53.570;9.718;2022-07-05T01:58:21;14.00;1.00
11132;DHT22;5620;53.570;9.718;2022-07-05T02:00:48;13.90;1.00
11132;DHT22;5620;53.570;9.718;2022-07-05T02:03:15;13.90;1.00
11132;DHT22;5620;53.570;9.718;2022-07-05T02:05:42;13.80;1.00
11132;DHT22;5620;53.570;9.718;2022-07-05T02:08:08;13.70;1.00
11132;DHT22;5620;53.570;9.718;2022-07-05T02:10:38;13.70;1.00
11132;DHT22;5620;53.570;9.718;2022-07-05T02:13:04;13.60;1.00
11132;DHT22;5620;53.570;9.718;2022-07-05T02:15:34;13.60;53.50
11132;DHT22;5620;53.570;9.718;2022-07-05T02:18:01;13.50;99.90
11132;DHT22;5620;53.570;9.718;2022-07-05T02:20:28;13.50;99.90
11132;DHT22;5620;53.570;9.718;2022-07-05T02:22:54;13.40;99.90
11132;DHT22;5620;53.570;9.718;2022-07-05T02:25:19;13.40;99.90
11132;DHT22;5620;53.570;9.718;2022-07-05T02:27:45;13.30;99.90
11132;DHT22;5620;53.570;9.718;2022-07-05T02:30:11;13.30;1.00
11132;DHT22;5620;53.570;9.718;2022-07-05T02:32:37;13.30;1.00
11132;DHT22;5620;53.570;9.718;2022-07-05T02:35:04;13.30;1.00
11132;DHT22;5620;53.570;9.718;2022-07-05T02:37:30;13.20;1.00
11132;DHT22;5620;53.570;9.718;2022-07-05T02:39:55;13.20;1.00
11132;DHT22;5620;53.570;9.718;2022-07-05T02:42:21;13.20;1.00
11132;DHT22;5620;53.570;9.718;2022-07-05T02:44:46;13.20;1.00
11132;DHT22;5620;53.570;9.718;2022-07-05T02:47:12;13.20;1.00
11132;DHT22;5620;53.570;9.718;2022-07-05T02:49:37;13.20;5.00
11132;DHT22;5620;53.570;9.718;2022-07-05T02:52:03;13.10;5.10
11132;DHT22;5620;53.570;9.718;2022-07-05T02:54:29;13.10;98.20
11132;DHT22;5620;53.570;9.718;2022-07-05T02:56:54;13.10;99.90
11132;DHT22;5620;53.570;9.718;2022-07-05T02:59:20;13.10;99.90
11132;DHT22;5620;53.570;9.718;2022-07-05T03:01:45;13.10;99.90
11132;DHT22;5620;53.570;9.718;2022-07-05T03:04:11;13.10;99.90
11132;DHT22;5620;53.570;9.718;2022-07-05T03:06:37;13.10;99.90
11132;DHT22;5620;53.570;9.718;2022-07-05T03:09:03;13.10;99.90
11132;DHT22;5620;53.570;9.718;2022-07-05T03:11:28;13.10;99.90
11132;DHT22;5620;53.570;9.718;2022-07-05T03:13:54;13.10;99.90
11132;DHT22;5620;53.570;9.718;2022-07-05T03:16:19;13.20;1.00
11132;DHT22;5620;53.570;9.718;2022-07-05T03:18:45;13.20;1.00
11132;DHT22;5620;53.570;9.718;2022-07-05T03:21:10;13.20;99.90
11132;DHT22;5620;53.570;9.718;2022-07-05T03:23:36;13.20;99.90
11132;DHT22;5620;53.570;9.718;2022-07-05T03:26:02;13.20;99.90
11132;DHT22;5620;53.570;9.718;2022-07-05T03:28:27;13.20;1.00
11132;DHT22;5620;53.570;9.718;2022-07-05T03:30:53;13.20;1.00
11132;DHT22;5620;53.570;9.718;2022-07-05T03:33:18;13.20;1.00
11132;DHT22;5620;53.570;9.718;2022-07-05T03:35:44;13.30;1.00
11132;DHT22;5620;53.570;9.718;2022-07-05T03:38:09;13.20;1.00
11132;DHT22;5620;53.570;9.718;2022-07-05T03:40:35;13.30;1.00
11132;DHT22;5620;53.570;9.718;2022-07-05T03:43:00;13.30;99.90
11132;DHT22;5620;53.570;9.718;2022-07-05T03:45:26;13.30;99.90
11132;DHT22;5620;53.570;9.718;2022-07-05T03:47:51;13.30;99.90
11132;DHT22;5620;53.570;9.718;2022-07-05T03:50:17;13.30;99.90
11132;DHT22;5620;53.570;9.718;2022-07-05T03:52:42;13.40;99.90
11132;DHT22;5620;53.570;9.718;2022-07-05T03:55:08;13.40;99.90
11132;DHT22;5620;53.570;9.718;2022-07-05T03:57:34;13.40;1.00
11132;DHT22;5620;53.570;9.718;2022-07-05T03:59:59;13.40;1.00
11132;DHT22;5620;53.570;9.718;2022-07-05T04:02:25;13.40;1.00
11132;DHT22;5620;53.570;9.718;2022-07-05T04:04:50;13.40;1.00
11132;DHT22;5620;53.570;9.718;2022-07-05T04:07:16;13.50;1.00
11132;DHT22;5620;53.570;9.718;2022-07-05T04:09:41;13.50;1.00
11132;DHT22;5620;53.570;9.718;2022-07-05T04:12:07;13.50;99.90
11132;DHT22;5620;53.570;9.718;2022-07-05T04:14:33;13.60;99.90
11132;DHT22;5620;53.570;9.718;2022-07-05T04:16:58;13.60;99.90
11132;DHT22;5620;53.570;9.718;2022-07-05T04:19:24;13.60;99.90
11132;DHT22;5620;53.570;9.718;2022-07-05T04:21:49;13.70;99.90
11132;DHT22;5620;53.570;9.718;2022-07-05T04:24:15;13.70;99.90
11132;DHT22;5620;53.570;9.718;2022-07-05T04:26:41;13.70;99.90
11132;DHT22;5620;53.570;9.718;2022-07-05T04:29:06;13.80;99.90
11132;DHT22;5620;53.570;9.718;2022-07-05T04:31:32;13.80;99.90
11132;DHT22;5620;53.570;9.718;2022-07-05T04:33:57;13.90;99.90
11132;DHT22;5620;53.570;9.718;2022-07-05T04:36:23;13.90;99.90
11132;DHT22;5620;53.570;9.718;2022-07-05T04:38:48;14.00;99.90
11132;DHT22;5620;53.570;9.718;2022-07-05T04:41:14;14.10;99.90
11132;DHT22;5620;53.570;9.718;2022-07-05T04:43:39;14.10;92.70
11132;DHT22;5620;53.570;9.718;2022-07-05T04:46:05;14.20;73.40
11132;DHT22;5620;53.570;9.718;2022-07-05T04:48:30;14.30;23.60
11132;DHT22;5620;53.570;9.718;2022-07-05T04:50:56;14.40;1.00
11132;DHT22;5620;53.570;9.718;2022-07-05T04:53:22;14.40;1.00
11132;DHT22;5620;53.570;9.718;2022-07-05T04:55:47;14.50;1.00
11132;DHT22;5620;53.570;9.718;2022-07-05T04:58:13;14.50;1.00
11132;DHT22;5620;53.570;9.718;2022-07-05T05:00:38;14.60;1.00
11132;DHT22;5620;53.570;9.718;2022-07-05T05:03:04;14.70;1.00
11132;DHT22;5620;53.570;9.718;2022-07-05T05:05:29;14.70;99.90
11132;DHT22;5620;53.570;9.718;2022-07-05T05:07:55;14.80;99.90
11132;DHT22;5620;53.570;9.718;2022-07-05T05:10:21;14.90;99.90
11132;DHT22;5620;53.570;9.718;2022-07-05T05:12:46;15.10;40.70
11132;DHT22;5620;53.570;9.718;2022-07-05T05:15:12;15.30;1.00
11132;DHT22;5620;53.570;9.718;2022-07-05T05:17:39;15.50;1.00
11132;DHT22;5620;53.570;9.718;2022-07-05T05:20:06;15.70;99.90
11132;DHT22;5620;53.570;9.718;2022-07-05T05:22:32;15.80;23.70
11132;DHT22;5620;53.570;9.718;2022-07-05T05:24:58;15.90;1.00
11132;DHT22;5620;53.570;9.718;2022-07-05T05:27:23;16.00;1.00
11132;DHT22;5620;53.570;9.718;2022-07-05T05:29:49;16.10;1.00
11132;DHT22;5620;53.570;9.718;2022-07-05T05:32:14;16.20;99.90
11132;DHT22;5620;53.570;9.718;2022-07-05T05:34:40;16.20;99.90
11132;DHT22;5620;53.570;9.718;2022-07-05T05:37:05;16.30;99.90
11132;DHT22;5620;53.570;9.718;2022-07-05T05:39:31;16.30;99.90
11132;DHT22;5620;53.570;9.718;2022-07-05T05:41:56;16.30;65.60
11132;DHT22;5620;53.570;9.718;2022-07-05T05:44:22;16.30;12.20
11132;DHT22;5620;53.570;9.718;2022-07-05T05:46:47;16.30;1.00
11132;DHT22;5620;53.570;9.718;2022-07-05T05:49:13;16.40;1.00
11132;DHT22;5620;53.570;9.718;2022-07-05T05:51:38;16.50;1.00
11132;DHT22;5620;53.570;9.718;2022-07-05T05:54:04;16.50;1.00
11132;DHT22;5620;53.570;9.718;2022-07-05T05:56:29;16.50;1.00
11132;DHT22;5620;53.570;9.718;2022-07-05T05:58:55;16.50;1.00
11132;DHT22;5620;53.570;9.718;2022-07-05T06:01:20;16.60;1.00
11132;DHT22;5620;53.570;9.718;2022-07-05T06:03:46;16.70;1.00
11132;DHT22;5620;53.570;9.718;2022-07-05T06:06:11;16.80;1.00
11132;DHT22;5620;53.570;9.718;2022-07-05T06:08:37;17.00;99.90
11132;DHT22;5620;53.570;9.718;2022-07-05T06:11:02;17.30;99.90
11132;DHT22;5620;53.570;9.718;2022-07-05T06:13:28;17.80;99.90
11132;DHT22;5620;53.570;9.718;2022-07-05T06:15:53;18.10;99.90
11132;DHT22;5620;53.570;9.718;2022-07-05T06:18:19;18.50;63.70
11132;DHT22;5620;53.570;9.718;2022-07-05T06:20:44;18.80;1.00
11132;DHT22;5620;53.570;9.718;2022-07-05T06:23:10;19.10;1.00
11132;DHT22;5620;53.570;9.718;2022-07-05T06:25:35;19.40;1.00
11132;DHT22;5620;53.570;9.718;2022-07-05T06:28:06;19.70;1.00
11132;DHT22;5620;53.570;9.718;2022-07-05T06:30:34;19.80;1.00
11132;DHT22;5620;53.570;9.718;2022-07-05T06:33:01;19.80;99.90
11132;DHT22;5620;53.570;9.718;2022-07-05T06:35:27;19.80;99.90
11132;DHT22;5620;53.570;9.718;2022-07-05T06:38:02;19.70;99.90
11132;DHT22;5620;53.570;9.718;2022-07-05T06:40:36;19.80;99.90
11132;DHT22;5620;53.570;9.718;2022-07-05T06:43:05;19.70;99.90
11132;DHT22;5620;53.570;9.718;2022-07-05T06:45:31;19.70;99.90
11132;DHT22;5620;53.570;9.718;2022-07-05T06:47:58;19.70;99.90
11132;DHT22;5620;53.570;9.718;2022-07-05T06:50:30;19.70;99.90
11132;DHT22;5620;53.570;9.718;2022-07-05T06:52:56;19.90;99.90
11132;DHT22;5620;53.570;9.718;2022-07-05T06:55:22;19.90;99.90
11132;DHT22;5620;53.570;9.718;2022-07-05T06:57:47;20.10;99.90
11132;DHT22;5620;53.570;9.718;2022-07-05T07:00:14;20.20;99.90
11132;DHT22;5620;53.570;9.718;2022-07-05T07:02:40;20.20;99.90
11132;DHT22;5620;53.570;9.718;2022-07-05T07:05:06;20.00;99.90
11132;DHT22;5620;53.570;9.718;2022-07-05T07:07:32;19.70;99.90
11132;DHT22;5620;53.570;9.718;2022-07-05T07:09:59;19.50;99.90
11132;DHT22;5620;53.570;9.718;2022-07-05T07:12:25;19.30;99.90
11132;DHT22;5620;53.570;9.718;2022-07-05T07:14:51;19.20;99.90
11132;DHT22;5620;53.570;9.718;2022-07-05T07:17:16;19.00;99.90
11132;DHT22;5620;53.570;9.718;2022-07-05T07:19:42;18.90;99.90
11132;DHT22;5620;53.570;9.718;2022-07-05T07:22:07;18.80;99.90
11132;DHT22;5620;53.570;9.718;2022-07-05T07:24:33;18.80;99.90
11132;DHT22;5620;53.570;9.718;2022-07-05T07:26:58;18.80;99.90
11132;DHT22;5620;53.570;9.718;2022-07-05T07:29:24;18.70;99.90
11132;DHT22;5620;53.570;9.718;2022-07-05T07:31:50;18.70;99.90
11132;DHT22;5620;53.570;9.718;2022-07-05T07:34:15;18.60;99.90
11132;DHT22;5620;53.570;9.718;2022-07-05T07:36:41;18.50;99.90
11132;DHT22;5620;53.570;9.718;2022-07-05T07:39:06;18.50;99.90
11132;DHT22;5620;53.570;9.718;2022-07-05T07:41:32;18.50;99.90
11132;DHT22;5620;53.570;9.718;2022-07-05T07:43:57;18.50;99.90
11132;DHT22;5620;53.570;9.718;2022-07-05T07:46:23;18.40;99.90
11132;DHT22;5620;53.570;9.718;2022-07-05T07:48:48;18.40;99.90
11132;DHT22;5620;53.570;9.718;2022-07-05T07:51:14;18.40;99.90
11132;DHT22;5620;53.570;9.718;2022-07-05T07:53:39;18.40;99.90
11132;DHT22;5620;53.570;9.718;2022-07-05T07:56:05;18.50;99.90
11132;DHT22;5620;53.570;9.718;2022-07-05T07:58:30;18.50;99.90
11132;DHT22;5620;53.570;9.718;2022-07-05T08:00:56;18.60;99.90
11132;DHT22;5620;53.570;9.718;2022-07-05T08:03:21;18.70;99.90
11132;DHT22;5620;53.570;9.718;2022-07-05T08:05:47;18.80;99.90
11132;DHT22;5620;53.570;9.718;2022-07-05T08:08:12;19.10;99.90
11132;DHT22;5620;53.570;9.718;2022-07-05T08:10:38;19.40;99.90
11132;DHT22;5620;53.570;9.718;2022-07-05T08:13:03;19.70;99.90
11132;DHT22;5620;53.570;9.718;2022-07-05T08:15:29;20.10;99.90
11132;DHT22;5620;53.570;9.718;2022-07-05T08:17:54;20.50;99.90
11132;DHT22;5620;53.570;9.718;2022-07-05T08:20:20;20.70;49.60
11132;DHT22;5620;53.570;9.718;2022-07-05T08:22:45;21.00;12.30
11132;DHT22;5620;53.570;9.718;2022-07-05T08:25:11;21.60;1.00
11132;DHT22;5620;53.570;9.718;2022-07-05T08:27:36;21.90;1.00
11132;DHT22;5620;53.570;9.718;2022-07-05T08:30:03;22.30;1.00
11132;DHT22;5620;53.570;9.718;2022-07-05T08:32:28;22.70;1.00
11132;DHT22;5620;53.570;9.718;2022-07-05T08:34:54;22.90;1.00
11132;DHT22;5620;53.570;9.718;2022-07-05T08:37:19;22.90;1.00
11132;DHT22;5620;53.570;9.718;2022-07-05T08:39:45;22.90;1.00
11132;DHT22;5620;53.570;9.718;2022-07-05T08:42:11;22.90;1.00
11132;DHT22;5620;53.570;9.718;2022-07-05T08:44:38;22.90;1.00
11132;DHT22;5620;53.570;9.718;2022-07-05T08:47:10;22.90;1.00
11132;DHT22;5620;53.570;9.718;2022-07-05T08:49:38;23.00;1.00
11132;DHT22;5620;53.570;9.718;2022-07-05T08:52:04;22.80;1.00
11132;DHT22;5620;53.570;9.718;2022-07-05T08:54:32;22.40;1.00
11132;DHT22;5620;53.570;9.718;2022-07-05T08:56:58;22.20;1.00
11132;DHT22;5620;53.570;9.718;2022-07-05T08:59:24;22.00;1.00
11132;DHT22;5620;53.570;9.718;2022-07-05T09:01:49;21.90;1.00
11132;DHT22;5620;53.570;9.718;2022-07-05T09:04:16;21.90;1.00
11132;DHT22;5620;53.570;9.718;2022-07-05T09:06:46;22.10;1.00
11132;DHT22;5620;53.570;9.718;2022-07-05T09:09:12;22.30;1.00
11132;DHT22;5620;53.570;9.718;2022-07-05T09:11:40;22.70;1.00
11132;DHT22;5620;53.570;9.718;2022-07-05T09:14:24;23.20;1.00
11132;DHT22;5620;53.570;9.718;2022-07-05T09:16:49;23.60;1.00
11132;DHT22;5620;53.570;9.718;2022-07-05T09:19:15;23.90;1.00
11132;DHT22;5620;53.570;9.718;2022-07-05T09:21:41;24.10;1.00
11132;DHT22;5620;53.570;9.718;2022-07-05T09:24:11;23.90;1.00
11132;DHT22;5620;53.570;9.718;2022-07-05T09:29:10;23.30;1.00
11132;DHT22;5620;53.570;9.718;2022-07-05T09:31:37;23.10;1.00
11132;DHT22;5620;53.570;9.718;2022-07-05T09:34:11;23.00;1.00
11132;DHT22;5620;53.570;9.718;2022-07-05T09:39:15;22.30;1.00
11132;DHT22;5620;53.570;9.718;2022-07-05T09:41:40;22.00;1.00
11132;DHT22;5620;53.570;9.718;2022-07-05T09:44:06;21.80;1.00
11132;DHT22;5620;53.570;9.718;2022-07-05T09:46:32;21.50;1.00
11132;DHT22;5620;53.570;9.718;2022-07-05T09:48:58;21.20;1.00
11132;DHT22;5620;53.570;9.718;2022-07-05T09:51:23;21.00;1.00
11132;DHT22;5620;53.570;9.718;2022-07-05T09:53:51;20.80;1.00
11132;DHT22;5620;53.570;9.718;2022-07-05T09:56:16;20.80;1.00
11132;DHT22;5620;53.570;9.718;2022-07-05T09:58:42;20.90;1.00
11132;DHT22;5620;53.570;9.718;2022-07-05T10:01:31;21.10;1.00
11132;DHT22;5620;53.570;9.718;2022-07-05T10:03:59;21.30;1.00
11132;DHT22;5620;53.570;9.718;2022-07-05T10:06:26;21.60;1.00
11132;DHT22;5620;53.570;9.718;2022-07-05T10:08:55;21.90;1.00
11132;DHT22;5620;53.570;9.718;2022-07-05T10:11:21;22.50;1.00
11132;DHT22;5620;53.570;9.718;2022-07-05T10:13:52;22.90;1.00
11132;DHT22;5620;53.570;9.718;2022-07-05T10:16:19;23.10;1.00
11132;DHT22;5620;53.570;9.718;2022-07-05T10:18:46;23.40;1.00
11132;DHT22;5620;53.570;9.718;2022-07-05T10:21:16;23.60;1.00
11132;DHT22;5620;53.570;9.718;2022-07-05T10:23:46;23.70;1.00
11132;DHT22;5620;53.570;9.718;2022-07-05T10:26:15;24.10;1.00
11132;DHT22;5620;53.570;9.718;2022-07-05T10:28:42;24.50;1.00
11132;DHT22;5620;53.570;9.718;2022-07-05T10:31:12;24.90;1.00
11132;DHT22;5620;53.570;9.718;2022-07-05T10:33:38;25.40;1.00
11132;DHT22;5620;53.570;9.718;2022-07-05T10:36:04;25.30;1.00
11132;DHT22;5620;53.570;9.718;2022-07-05T10:38:32;25.30;1.00
11132;DHT22;5620;53.570;9.718;2022-07-05T10:41:03;25.70;1.00
11132;DHT22;5620;53.570;9.718;2022-07-05T10:43:30;26.40;1.00
11132;DHT22;5620;53.570;9.718;2022-07-05T10:45:55;26.70;1.00
11132;DHT22;5620;53.570;9.718;2022-07-05T10:48:23;26.60;1.00
11132;DHT22;5620;53.570;9.718;2022-07-05T10:50:50;26.90;1.00
11132;DHT22;5620;53.570;9.718;2022-07-05T10:53:17;27.00;1.00
11132;DHT22;5620;53.570;9.718;2022-07-05T10:56:11;26.90;1.00
11132;DHT22;5620;53.570;9.718;2022-07-05T11:06:04;25.90;1.00
11132;DHT22;5620;53.570;9.718;2022-07-05T11:08:30;26.40;1.00
11132;DHT22;5620;53.570;9.718;2022-07-05T11:11:12;28.00;1.00
11132;DHT22;5620;53.570;9.718;2022-07-05T11:13:41;28.40;1.00
11132;DHT22;5620;53.570;9.718;2022-07-05T11:16:24;27.60;1.00
11132;DHT22;5620;53.570;9.718;2022-07-05T11:18:52;26.90;1.00
11132;DHT22;5620;53.570;9.718;2022-07-05T11:21:22;27.00;1.00
11132;DHT22;5620;53.570;9.718;2022-07-05T11:23:48;28.10;1.00
11132;DHT22;5620;53.570;9.718;2022-07-05T11:26:17;30.10;1.00
11132;DHT22;5620;53.570;9.718;2022-07-05T11:28:46;32.00;1.00
11132;DHT22;5620;53.570;9.718;2022-07-05T11:31:38;33.20;1.00
11132;DHT22;5620;53.570;9.718;2022-07-05T11:34:13;33.70;1.00
11132;DHT22;5620;53.570;9.718;2022-07-05T11:36:39;35.30;1.00
11132;DHT22;5620;53.570;9.718;2022-07-05T11:39:12;37.10;1.00
11132;DHT22;5620;53.570;9.718;2022-07-05T11:41:38;37.40;1.00
11132;DHT22;5620;53.570;9.718;2022-07-05T11:44:06;37.00;1.00
11132;DHT22;5620;53.570;9.718;2022-07-05T11:46:32;37.20;1.00
11132;DHT22;5620;53.570;9.718;2022-07-05T11:49:00;36.90;1.00
11132;DHT22;5620;53.570;9.718;2022-07-05T11:51:25;36.40;1.00
11132;DHT22;5620;53.570;9.718;2022-07-05T11:53:51;34.80;1.00
11132;DHT22;5620;53.570;9.718;2022-07-05T11:56:16;33.00;1.00
11132;DHT22;5620;53.570;9.718;2022-07-05T11:58:42;32.00;1.00
11132;DHT22;5620;53.570;9.718;2022-07-05T12:01:08;31.00;1.00
11132;DHT22;5620;53.570;9.718;2022-07-05T12:03:34;29.90;1.00
11132;DHT22;5620;53.570;9.718;2022-07-05T12:06:10;28.90;1.00
11132;DHT22;5620;53.570;9.718;2022-07-05T12:08:35;28.40;1.00
11132;DHT22;5620;53.570;9.718;2022-07-05T12:11:01;28.00;1.00
11132;DHT22;5620;53.570;9.718;2022-07-05T12:13:28;27.70;1.00
11132;DHT22;5620;53.570;9.718;2022-07-05T12:16:00;28.10;1.00
11132;DHT22;5620;53.570;9.718;2022-07-05T12:18:26;28.70;1.00
11132;DHT22;5620;53.570;9.718;2022-07-05T12:20:52;28.40;1.00
11132;DHT22;5620;53.570;9.718;2022-07-05T12:23:26;27.80;1.00
11132;DHT22;5620;53.570;9.718;2022-07-05T12:25:52;28.20;1.00
11132;DHT22;5620;53.570;9.718;2022-07-05T12:28:17;29.30;1.00
11132;DHT22;5620;53.570;9.718;2022-07-05T12:30:43;29.90;1.00
11132;DHT22;5620;53.570;9.718;2022-07-05T12:33:09;30.20;1.00
11132;DHT22;5620;53.570;9.718;2022-07-05T12:35:38;30.00;1.00
11132;DHT22;5620;53.570;9.718;2022-07-05T12:38:04;30.90;1.00
11132;DHT22;5620;53.570;9.718;2022-07-05T12:40:30;31.90;1.00
11132;DHT22;5620;53.570;9.718;2022-07-05T12:43:11;31.00;1.00
11132;DHT22;5620;53.570;9.718;2022-07-05T12:45:38;29.90;1.00
11132;DHT22;5620;53.570;9.718;2022-07-05T12:48:06;29.10;1.00
11132;DHT22;5620;53.570;9.718;2022-07-05T12:50:51;28.20;1.00
11132;DHT22;5620;53.570;9.718;2022-07-05T12:53:18;27.20;1.00
11132;DHT22;5620;53.570;9.718;2022-07-05T12:55:43;26.20;1.00
11132;DHT22;5620;53.570;9.718;2022-07-05T12:58:09;25.30;1.00
11132;DHT22;5620;53.570;9.718;2022-07-05T13:00:34;24.70;1.00
11132;DHT22;5620;53.570;9.718;2022-07-05T13:03:00;24.00;1.00
11132;DHT22;5620;53.570;9.718;2022-07-05T13:05:25;23.60;1.00
11132;DHT22;5620;53.570;9.718;2022-07-05T13:07:52;23.30;1.00
11132;DHT22;5620;53.570;9.718;2022-07-05T13:10:20;23.00;1.00
11132;DHT22;5620;53.570;9.718;2022-07-05T13:12:47;22.80;1.00
11132;DHT22;5620;53.570;9.718;2022-07-05T13:15:12;22.50;1.00
11132;DHT22;5620;53.570;9.718;2022-07-05T13:17:40;22.20;1.00
11132;DHT22;5620;53.570;9.718;2022-07-05T13:20:07;21.90;1.00
11132;DHT22;5620;53.570;9.718;2022-07-05T13:22:33;21.60;1.00
11132;DHT22;5620;53.570;9.718;2022-07-05T13:24:59;21.40;1.00
11132;DHT22;5620;53.570;9.718;2022-07-05T13:27:24;21.30;1.00
11132;DHT22;5620;53.570;9.718;2022-07-05T13:29:50;21.30;1.00
11132;DHT22;5620;53.570;9.718;2022-07-05T13:32:15;21.40;1.00
11132;DHT22;5620;53.570;9.718;2022-07-05T13:34:41;21.60;1.00
11132;DHT22;5620;53.570;9.718;2022-07-05T13:37:06;22.20;1.00
11132;DHT22;5620;53.570;9.718;2022-07-05T13:39:32;23.20;1.00
11132;DHT22;5620;53.570;9.718;2022-07-05T13:41:57;24.30;1.00
11132;DHT22;5620;53.570;9.718;2022-07-05T13:44:23;25.90;1.00
11132;DHT22;5620;53.570;9.718;2022-07-05T13:46:49;29.40;1.00
11132;DHT22;5620;53.570;9.718;2022-07-05T13:49:15;30.30;1.00
11132;DHT22;5620;53.570;9.718;2022-07-05T13:51:40;29.00;1.00
11132;DHT22;5620;53.570;9.718;2022-07-05T13:54:06;27.50;1.00
11132;DHT22;5620;53.570;9.718;2022-07-05T13:56:31;26.20;1.00
11132;DHT22;5620;53.570;9.718;2022-07-05T13:58:57;25.10;1.00
11132;DHT22;5620;53.570;9.718;2022-07-05T14:01:23;24.30;1.00
11132;DHT22;5620;53.570;9.718;2022-07-05T14:03:49;23.70;1.00
11132;DHT22;5620;53.570;9.718;2022-07-05T14:06:14;23.20;1.00
11132;DHT22;5620;53.570;9.718;2022-07-05T14:08:40;22.90;1.00
11132;DHT22;5620;53.570;9.718;2022-07-05T14:11:05;22.90;1.00
11132;DHT22;5620;53.570;9.718;2022-07-05T14:13:31;23.40;1.00
11132;DHT22;5620;53.570;9.718;2022-07-05T14:15:56;27.30;1.00
11132;DHT22;5620;53.570;9.718;2022-07-05T14:18:22;29.80;1.00
11132;DHT22;5620;53.570;9.718;2022-07-05T14:20:48;29.20;1.00
11132;DHT22;5620;53.570;9.718;2022-07-05T14:23:14;28.00;1.00
11132;DHT22;5620;53.570;9.718;2022-07-05T14:25:41;27.10;1.00
11132;DHT22;5620;53.570;9.718;2022-07-05T14:28:06;26.30;1.00
11132;DHT22;5620;53.570;9.718;2022-07-05T14:30:35;25.70;1.00
11132;DHT22;5620;53.570;9.718;2022-07-05T14:33:02;25.20;1.00
11132;DHT22;5620;53.570;9.718;2022-07-05T14:35:28;25.20;1.00
11132;DHT22;5620;53.570;9.718;2022-07-05T14:37:54;25.30;1.00
11132;DHT22;5620;53.570;9.718;2022-07-05T14:40:19;25.10;1.00
11132;DHT22;5620;53.570;9.718;2022-07-05T14:42:45;24.90;1.00
11132;DHT22;5620;53.570;9.718;2022-07-05T14:45:11;24.50;1.00
11132;DHT22;5620;53.570;9.718;2022-07-05T14:47:36;23.90;1.00
11132;DHT22;5620;53.570;9.718;2022-07-05T14:50:02;23.60;1.00
11132;DHT22;5620;53.570;9.718;2022-07-05T14:52:28;23.30;1.00
11132;DHT22;5620;53.570;9.718;2022-07-05T14:54:53;23.10;1.00
11132;DHT22;5620;53.570;9.718;2022-07-05T14:57:19;22.90;1.00
11132;DHT22;5620;53.570;9.718;2022-07-05T14:59:44;23.10;1.00
11132;DHT22;5620;53.570;9.718;2022-07-05T15:02:10;23.80;1.00
11132;DHT22;5620;53.570;9.718;2022-07-05T15:04:35;24.90;1.00
11132;DHT22;5620;53.570;9.718;2022-07-05T15:07:01;27.20;1.00
11132;DHT22;5620;53.570;9.718;2022-07-05T15:09:26;31.80;1.00
11132;DHT22;5620;53.570;9.718;2022-07-05T15:11:52;33.50;1.00
11132;DHT22;5620;53.570;9.718;2022-07-05T15:14:17;33.80;1.00
11132;DHT22;5620;53.570;9.718;2022-07-05T15:16:43;35.70;1.00
11132;DHT22;5620;53.570;9.718;2022-07-05T15:19:08;36.50;1.00
11132;DHT22;5620;53.570;9.718;2022-07-05T15:21:34;37.70;1.00
11132;DHT22;5620;53.570;9.718;2022-07-05T15:24:00;40.90;1.00
11132;DHT22;5620;53.570;9.718;2022-07-05T15:26:27;42.20;1.00
11132;DHT22;5620;53.570;9.718;2022-07-05T15:29:02;43.10;99.90
11132;DHT22;5620;53.570;9.718;2022-07-05T15:31:30;44.50;99.90
11132;DHT22;5620;53.570;9.718;2022-07-05T15:33:56;44.70;99.90
11132;DHT22;5620;53.570;9.718;2022-07-05T15:36:21;44.70;99.90
11132;DHT22;5620;53.570;9.718;2022-07-05T15:38:47;44.60;99.90
11132;DHT22;5620;53.570;9.718;2022-07-05T15:41:12;43.60;99.90
11132;DHT22;5620;53.570;9.718;2022-07-05T15:43:38;42.50;1.00
11132;DHT22;5620;53.570;9.718;2022-07-05T15:46:03;41.70;1.00
11132;DHT22;5620;53.570;9.718;2022-07-05T15:48:29;40.10;1.00
11132;DHT22;5620;53.570;9.718;2022-07-05T15:50:54;37.50;1.00
11132;DHT22;5620;53.570;9.718;2022-07-05T15:53:20;35.50;1.00
11132;DHT22;5620;53.570;9.718;2022-07-05T15:55:45;33.30;1.00
11132;DHT22;5620;53.570;9.718;2022-07-05T15:58:12;31.40;1.00
11132;DHT22;5620;53.570;9.718;2022-07-05T16:00:37;30.20;1.00
11132;DHT22;5620;53.570;9.718;2022-07-05T16:03:03;29.90;1.00
11132;DHT22;5620;53.570;9.718;2022-07-05T16:05:28;29.80;1.00